Deer Park, WA

12:38 PM PDT on August 03, 2015 (GMT -0700)
Deer Park | | Change Station
CLOSE
Current Station
Airport
Location: Deer Park,
Elevation: 2205 ft
Nearby Weather Stations

Elev 2205 ft 47.97 °N, 117.42 °W | Updated 45 minutes ago

Clear
Clear
81 °F
Feels Like 81 °F
N
6
Wind Variable Wind from SSE

Today
High -- | Low -- °F
--% Chance of Precip.
Yesterday
High -- | Low -- °F
Precip. -- in
5:28 AM 8:22 PM
Waning Gibbous, 84% visible
Pressure 29.78 in
Visibility 7.0 miles
Clouds Clear
Dew Point 41 °F
Humidity 24%
Rainfall 0.00 in
Snow Depth Not available.
UV 9 out of 12
Pollen 6.60 out of 12
Air Quality Not available.
Flu Activity Not available.
METAR KDEW 031853Z AUTO 16005KT 7SM CLR 27/05 A2982 RMK AO2 SLP085 T02720050

More Conditions Fewer Conditions

Pressure 29.78 in
Visibility 7.0 miles
Clouds Clear
Dew Point 41 °F
Humidity 24%
Rainfall 0.00 in
Snow Depth Not available.
UV 9 out of 12
Pollen 6.60 out of 12
Air Quality Not available.
Flu Activity Not available.
METAR KDEW 031853Z AUTO 16005KT 7SM CLR 27/05 A2982 RMK AO2 SLP085 T02720050

More Conditions Fewer Conditions

10-Day Weather Forecast

×

Almanac

Astronomy

Aug. 03, 2015 Rise Set
Actual Time
Civil Twilight
Nautical Twilight
Astronomical Twilight
Moon
Length of Visible Light
Length of Day
Tomorrow will be .
, % of the Moon is Illuminated

Today's Extremes

State Highs State Lows

Community

WunderPhotos

Upload Photos

1,843,714 photos uploaded!

WunderBlogs® & News

Nearby

Air Quality

  Air Quality AQ Index Pollutant
Not available.

Snow Depth

Station Depth Elevation

Earthquake Activity

City Distance Mag. Time & Date
Minimum magnitude displayed is 2.5.

Coastal Water Temperatures

Place Temperature

Stations

Nearby Weather Stations

Station Location Temp. Windchill Dew Point Humidity Wind Precip. Elev Updated Type